Time;durP1;ratioP1;P1;durP2;ratioP2;P2;SDS_P1;SDS_P2;PMS_P1;PMS_P2;Temp;Humidity;BMP_temperature;BMP_pressure;BME280_temperature;BME280_humidity;BME280_pressure;Samples;Min_cycle;Max_cycle;Signal;HPM_P1;HPM_P2
2021/01/05 00:00:36;;;;;;;13.03;11.73;;;3.50;99.90;;;;;;5042823;28;20190;-90
2021/01/05 00:03:04;;;;;;;12.23;10.83;;;3.50;99.90;;;;;;5053428;28;20160;-90
2021/01/05 00:05:30;;;;;;;11.97;10.77;;;3.50;99.90;;;;;;5030761;28;20292;-90
2021/01/05 00:07:55;;;;;;;11.43;10.30;;;3.50;99.90;;;;;;5039032;28;20184;-89
2021/01/05 00:10:24;;;;;;;11.67;10.47;;;3.40;99.90;;;;;;5056807;28;20675;-90
2021/01/05 00:12:49;;;;;;;13.63;10.83;;;3.50;99.90;;;;;;5038867;28;20164;-89
2021/01/05 00:15:16;;;;;;;12.50;11.40;;;3.50;99.90;;;;;;5039106;28;20260;-90
2021/01/05 00:17:42;;;;;;;12.50;11.33;;;3.50;99.90;;;;;;5039097;28;20171;-90
2021/01/05 00:20:27;;;;;;;13.27;10.87;;;3.60;99.90;;;;;;5038570;28;20202;-90
2021/01/05 00:23:01;;;;;;;12.80;11.60;;;3.60;99.90;;;;;;5038574;28;20163;-90
2021/01/05 00:25:28;;;;;;;18.00;13.33;;;3.60;99.90;;;;;;5056494;28;20163;-89
2021/01/05 00:27:57;;;;;;;14.57;12.80;;;3.60;99.90;;;;;;5038664;28;20172;-90
2021/01/05 00:30:25;;;;;;;13.70;12.00;;;3.50;99.90;;;;;;5038865;28;20183;-90
2021/01/05 00:32:52;;;;;;;12.67;11.27;;;3.60;99.90;;;;;;5042473;28;20349;-90
2021/01/05 00:35:24;;;;;;;12.40;11.10;;;3.70;99.90;;;;;;5042027;28;20209;-91
2021/01/05 00:37:51;;;;;;;11.70;10.57;;;3.70;99.90;;;;;;5076462;28;20166;-89
2021/01/05 00:40:18;;;;;;;16.33;11.57;;;3.70;99.90;;;;;;5042378;28;20181;-90
2021/01/05 00:42:44;;;;;;;13.00;11.70;;;3.80;99.90;;;;;;5078409;28;20171;-90
2021/01/05 00:45:10;;;;;;;13.47;12.13;;;3.80;99.90;;;;;;5080497;28;20167;-91
2021/01/05 00:47:36;;;;;;;12.67;11.37;;;3.80;99.90;;;;;;5075407;28;20201;-91
2021/01/05 00:50:04;;;;;;;12.07;10.97;;;3.80;99.90;;;;;;5043232;28;20174;-90
2021/01/05 00:52:29;;;;;;;13.07;11.77;;;3.80;99.90;;;;;;5041623;28;20175;-90
2021/01/05 00:54:55;;;;;;;12.27;11.07;;;3.80;99.90;;;;;;5025400;28;20262;-90
2021/01/05 00:57:20;;;;;;;11.90;10.70;;;3.70;99.90;;;;;;5058380;28;20170;-89
2021/01/05 00:59:46;;;;;;;12.33;11.27;;;3.50;99.90;;;;;;5055743;28;20186;-89
2021/01/05 01:02:13;;;;;;;13.00;11.73;;;3.60;99.90;;;;;;5064877;28;20174;-91
2021/01/05 01:04:38;;;;;;;13.23;11.87;;;3.70;99.90;;;;;;5086920;28;20588;-90
2021/01/05 01:07:04;;;;;;;14.10;11.83;;;3.70;99.90;;;;;;5056035;28;20164;-90
2021/01/05 01:09:30;;;;;;;13.30;11.90;;;3.80;99.90;;;;;;5038087;28;20258;-90
2021/01/05 01:11:57;;;;;;;13.00;11.73;;;3.70;99.90;;;;;;5055571;28;20167;-90
2021/01/05 01:14:23;;;;;;;14.57;12.70;;;3.60;99.90;;;;;;5037911;28;20176;-90
2021/01/05 01:16:48;;;;;;;15.23;13.30;;;3.50;99.90;;;;;;5037684;28;20211;-89
2021/01/05 01:19:14;;;;;;;17.37;13.50;;;3.50;99.90;;;;;;5037966;28;20176;-90
2021/01/05 01:21:51;;;;;;;17.73;14.37;;;3.50;99.90;;;;;;5021632;28;20727;-90
2021/01/05 01:24:20;;;;;;;15.53;13.87;;;3.50;99.90;;;;;;5038306;28;20170;-90
2021/01/05 01:26:46;;;;;;;16.43;13.80;;;3.50;99.90;;;;;;5055118;28;20190;-90
2021/01/05 01:29:20;;;;;;;16.60;14.37;;;3.50;99.90;;;;;;5037785;28;20178;-90
2021/01/05 01:31:46;;;;;;;17.27;14.73;;;3.60;99.90;;;;;;5038700;28;20168;-91
2021/01/05 01:34:14;;;;;;;18.93;15.23;;;3.60;99.90;;;;;;5060476;28;20579;-90
2021/01/05 01:36:40;;;;;;;20.13;15.53;;;3.70;99.90;;;;;;5017563;28;20208;-90
2021/01/05 01:39:07;;;;;;;18.10;15.03;;;3.90;99.90;;;;;;5001302;28;20182;-90
2021/01/05 01:41:33;;;;;;;18.73;14.17;;;3.70;99.90;;;;;;5035240;28;20521;-90
2021/01/05 01:44:00;;;;;;;18.23;14.93;;;3.60;99.90;;;;;;5017829;28;20187;-90
2021/01/05 01:46:31;;;;;;;17.90;14.63;;;3.70;99.90;;;;;;5019895;28;20180;-89
2021/01/05 01:48:57;;;;;;;18.20;14.10;;;3.60;99.90;;;;;;5057384;28;20171;-89
2021/01/05 01:51:25;;;;;;;17.40;14.57;;;3.40;99.90;;;;;;5041060;28;20175;-90
2021/01/05 01:54:09;;;;;;;18.67;15.33;;;3.40;99.90;;;;;;5025046;28;20178;-90
2021/01/05 01:56:56;;;;;;;17.80;14.77;;;3.50;99.90;;;;;;5075322;28;20195;-90
2021/01/05 02:00:06;;;;;;;18.97;15.07;;;3.50;99.90;;;;;;5057021;28;20170;-90
2021/01/05 02:02:42;;;;;;;17.60;13.57;;;3.60;99.90;;;;;;5040557;28;20172;-89
2021/01/05 02:05:17;;;;;;;18.70;15.20;;;3.50;99.90;;;;;;5054710;28;20183;-90
2021/01/05 02:08:06;;;;;;;19.00;16.07;;;3.50;99.90;;;;;;5036849;28;20190;-90
2021/01/05 02:10:52;;;;;;;20.07;16.17;;;3.50;99.90;;;;;;5054849;28;20613;-90
2021/01/05 02:13:50;;;;;;;17.63;14.67;;;3.40;99.90;;;;;;5037128;28;20650;-90
2021/01/05 02:16:50;;;;;;;18.40;15.47;;;3.50;99.90;;;;;;5037107;28;20207;-90
2021/01/05 02:19:30;;;;;;;19.17;15.33;;;3.60;99.90;;;;;;5037079;28;20175;-90
2021/01/05 02:22:11;;;;;;;23.17;16.47;;;3.40;99.90;;;;;;5037198;28;20526;-90
2021/01/05 02:25:08;;;;;;;27.90;16.80;;;3.50;99.90;;;;;;5037040;28;20167;-89
2021/01/05 02:27:41;;;;;;;23.80;16.90;;;3.40;99.90;;;;;;5036759;28;20222;-90
2021/01/05 02:30:10;;;;;;;21.80;16.73;;;3.40;99.90;;;;;;5054456;28;20163;-90
2021/01/05 02:32:49;;;;;;;24.47;17.57;;;3.40;99.90;;;;;;5037045;28;20175;-89
2021/01/05 02:35:32;;;;;;;22.07;15.87;;;3.40;99.90;;;;;;5044306;28;20225;-89
2021/01/05 02:38:19;;;;;;;23.77;16.63;;;3.30;99.90;;;;;;5056906;28;20202;-90
2021/01/05 02:40:52;;;;;;;20.70;15.87;;;3.30;99.90;;;;;;5074569;28;20198;-90
2021/01/05 02:43:30;;;;;;;22.47;15.97;;;3.30;99.90;;;;;;5059157;28;20274;-90
2021/01/05 02:46:14;;;;;;;20.97;15.63;;;3.40;99.90;;;;;;5070035;28;20207;-90
2021/01/05 02:48:59;;;;;;;22.27;16.03;;;3.40;99.90;;;;;;5021317;28;20180;-90
2021/01/05 02:51:48;;;;;;;20.33;15.43;;;3.40;99.90;;;;;;5038504;28;20164;-90
2021/01/05 02:54:32;;;;;;;21.27;16.67;;;3.30;99.90;;;;;;5020771;28;20275;-90
2021/01/05 02:57:21;;;;;;;26.70;17.53;;;3.30;99.90;;;;;;5037632;28;20260;-90
2021/01/05 03:00:25;;;;;;;22.70;16.87;;;3.30;99.90;;;;;;5040577;28;20637;-90
2021/01/05 03:02:56;;;;;;;21.77;16.80;;;3.40;99.90;;;;;;5040983;28;20171;-90
2021/01/05 03:05:22;;;;;;;21.33;16.07;;;3.40;99.90;;;;;;5058340;28;20187;-90
2021/01/05 03:07:49;;;;;;;24.47;17.53;;;3.40;99.90;;;;;;5053564;28;20227;-88
2021/01/05 03:10:38;;;;;;;21.70;16.97;;;3.40;99.90;;;;;;5047213;28;20171;-91
2021/01/05 03:13:45;;;;;;;19.90;16.07;;;3.40;99.90;;;;;;5075875;28;20152;-91
2021/01/05 03:16:22;;;;;;;20.97;16.00;;;3.60;99.90;;;;;;5039777;28;20217;-90
2021/01/05 03:19:06;;;;;;;21.83;16.70;;;3.70;99.90;;;;;;5040299;28;20602;-90
2021/01/05 03:21:37;;;;;;;20.70;15.93;;;3.60;99.90;;;;;;5058080;28;20160;-90
2021/01/05 03:24:04;;;;;;;22.27;15.83;;;3.60;99.90;;;;;;5045045;28;20159;-90
2021/01/05 03:26:35;;;;;;;20.97;15.93;;;3.50;99.90;;;;;;5041713;28;20183;-90
2021/01/05 03:29:01;;;;;;;20.23;15.70;;;3.40;99.90;;;;;;5080218;28;20253;-91
2021/01/05 03:31:43;;;;;;;24.03;16.83;;;3.50;99.90;;;;;;5048382;28;20166;-90
2021/01/05 03:34:08;;;;;;;21.33;16.07;;;3.50;99.90;;;;;;5078130;28;20604;-90
2021/01/05 03:36:34;;;;;;;19.83;16.27;;;3.50;99.90;;;;;;5026863;28;20206;-90
2021/01/05 03:39:00;;;;;;;24.20;18.13;;;3.40;99.90;;;;;;5026803;28;20174;-91
2021/01/05 03:41:25;;;;;;;23.03;17.73;;;3.50;99.90;;;;;;5077037;28;20175;-90
2021/01/05 03:43:51;;;;;;;23.97;16.90;;;3.50;99.90;;;;;;5026761;28;20581;-90
2021/01/05 03:46:17;;;;;;;23.47;17.10;;;3.60;99.90;;;;;;5042958;28;20209;-91
2021/01/05 03:48:42;;;;;;;27.43;17.27;;;3.60;99.90;;;;;;5059718;28;20217;-90
2021/01/05 03:51:08;;;;;;;24.27;17.30;;;3.60;99.90;;;;;;5054319;28;20573;-88
2021/01/05 03:53:34;;;;;;;23.53;17.07;;;3.50;99.90;;;;;;5006554;28;20639;-89
2021/01/05 03:55:59;;;;;;;25.20;17.70;;;3.40;99.90;;;;;;5043028;28;20274;-90
2021/01/05 03:58:25;;;;;;;26.20;18.50;;;3.40;99.90;;;;;;5077107;28;20167;-90
2021/01/05 04:00:51;;;;;;;22.37;16.83;;;3.50;99.90;;;;;;5059503;28;20632;-91
2021/01/05 04:03:17;;;;;;;24.07;17.53;;;3.60;99.90;;;;;;5042719;28;20174;-90
2021/01/05 04:05:42;;;;;;;31.10;18.13;;;3.60;99.90;;;;;;5059416;28;20195;-90
2021/01/05 04:08:08;;;;;;;28.37;18.80;;;3.60;99.90;;;;;;5059476;28;20178;-90
2021/01/05 04:10:34;;;;;;;25.80;18.67;;;3.70;99.90;;;;;;5074690;28;20171;-91
2021/01/05 04:12:59;;;;;;;21.07;16.37;;;3.80;99.90;;;;;;5023367;28;20187;-89
2021/01/05 04:15:28;;;;;;;26.17;17.50;;;3.80;99.90;;;;;;5006108;28;20714;-89
2021/01/05 04:17:56;;;;;;;26.20;18.37;;;3.60;99.90;;;;;;5056869;28;20174;-90
2021/01/05 04:20:22;;;;;;;24.87;18.40;;;3.60;99.90;;;;;;5056194;28;20186;-90
2021/01/05 04:22:48;;;;;;;27.50;18.50;;;3.60;99.90;;;;;;5022529;28;20179;-90
2021/01/05 04:25:16;;;;;;;23.50;17.50;;;3.50;99.90;;;;;;5045898;28;20235;-91
2021/01/05 04:27:42;;;;;;;25.67;17.93;;;3.50;99.90;;;;;;5023705;28;20550;-89
2021/01/05 04:30:16;;;;;;;25.33;17.30;;;3.50;99.90;;;;;;5039387;28;20168;-89
2021/01/05 04:32:41;;;;;;;26.00;17.10;;;3.40;99.90;;;;;;5039368;28;20168;-88
2021/01/05 04:35:07;;;;;;;24.60;17.67;;;3.30;99.90;;;;;;5038179;28;20179;-90
2021/01/05 04:37:33;;;;;;;31.87;19.23;;;3.40;99.90;;;;;;4987493;28;20177;-90
2021/01/05 04:39:59;;;;;;;26.80;18.07;;;3.50;99.90;;;;;;5003508;28;20176;-90
2021/01/05 04:42:34;;;;;;;26.60;18.47;;;3.40;99.90;;;;;;4987044;28;20168;-89
2021/01/05 04:45:16;;;;;;;24.37;17.97;;;3.40;99.90;;;;;;5034229;28;20642;-90
2021/01/05 04:48:00;;;;;;;26.97;18.67;;;3.40;99.90;;;;;;5059280;28;20170;-90
2021/01/05 04:50:40;;;;;;;25.80;17.93;;;3.40;99.90;;;;;;5046449;28;20189;-90
2021/01/05 04:53:29;;;;;;;27.70;18.00;;;3.50;99.90;;;;;;5038858;28;20175;-90
2021/01/05 04:56:01;;;;;;;28.13;17.73;;;3.40;99.90;;;;;;5040586;28;20215;-90
2021/01/05 04:58:51;;;;;;;26.37;17.57;;;3.30;99.90;;;;;;5056108;28;20159;-90
2021/01/05 05:01:34;;;;;;;27.13;17.80;;;3.40;99.90;;;;;;5055785;28;20162;-90
2021/01/05 05:04:28;;;;;;;26.20;17.83;;;3.40;99.90;;;;;;5038320;28;20203;-90
2021/01/05 05:07:38;;;;;;;23.83;16.47;;;3.40;99.90;;;;;;5037097;28;20186;-90
2021/01/05 05:10:15;;;;;;;25.93;18.40;;;3.40;99.90;;;;;;5037966;28;20172;-91
2021/01/05 05:13:34;;;;;;;25.27;17.57;;;3.40;99.90;;;;;;5056529;28;20166;-90
2021/01/05 05:16:31;;;;;;;26.23;17.93;;;3.40;99.90;;;;;;4974566;28;20220;-90
2021/01/05 05:19:33;;;;;;;27.27;18.87;;;3.40;99.90;;;;;;5034545;28;20527;-90
2021/01/05 05:22:23;;;;;;;26.60;17.93;;;3.30;99.90;;;;;;5010811;28;20213;-84
2021/01/05 05:24:57;;;;;;;30.87;19.87;;;3.30;99.90;;;;;;5072194;28;20163;-90
2021/01/05 05:27:34;;;;;;;29.30;18.93;;;3.30;99.90;;;;;;5058057;28;20166;-89
2021/01/05 05:30:08;;;;;;;26.10;18.83;;;3.30;99.90;;;;;;5058342;28;20170;-90
2021/01/05 05:32:39;;;;;;;35.90;21.13;;;3.40;99.90;;;;;;5068238;28;20166;-90
2021/01/05 05:35:04;;;;;;;31.47;19.80;;;3.40;99.90;;;;;;5081499;28;20151;-89
2021/01/05 05:37:39;;;;;;;29.40;20.17;;;3.30;99.90;;;;;;5095058;28;20209;-91
2021/01/05 05:40:40;;;;;;;29.30;19.97;;;3.30;99.90;;;;;;5065485;28;20176;-90
2021/01/05 05:43:33;;;;;;;34.70;20.97;;;3.30;99.90;;;;;;5072669;28;20237;-90
2021/01/05 05:46:02;;;;;;;29.87;19.97;;;3.40;99.90;;;;;;5037332;28;20183;-90
2021/01/05 05:48:37;;;;;;;29.73;19.67;;;3.30;99.90;;;;;;5037812;28;20313;-90
2021/01/05 05:51:15;;;;;;;30.90;19.43;;;3.30;99.90;;;;;;5055953;28;20183;-89
2021/01/05 05:53:53;;;;;;;29.70;20.33;;;3.30;99.90;;;;;;5058918;28;20171;-91
2021/01/05 05:56:34;;;;;;;34.47;20.93;;;3.30;99.90;;;;;;5044727;28;20203;-90
2021/01/05 05:59:02;;;;;;;30.03;19.33;;;3.30;99.90;;;;;;5054673;28;20238;-90
2021/01/05 06:01:35;;;;;;;32.10;20.63;;;3.30;99.90;;;;;;5055176;28;20241;-90
2021/01/05 06:04:01;;;;;;;32.07;20.37;;;3.30;99.90;;;;;;5037232;28;20167;-90
2021/01/05 06:06:28;;;;;;;34.47;21.73;;;3.30;99.90;;;;;;5020850;28;20266;-91
2021/01/05 06:08:54;;;;;;;30.73;20.47;;;3.40;99.90;;;;;;5021542;28;20701;-90
2021/01/05 06:11:20;;;;;;;32.73;20.00;;;3.30;99.90;;;;;;5001473;28;20203;-90
2021/01/05 06:13:45;;;;;;;33.17;20.30;;;3.20;99.90;;;;;;5033981;28;20518;-90
2021/01/05 06:16:11;;;;;;;32.10;20.67;;;3.20;99.90;;;;;;5053953;28;20209;-90
2021/01/05 06:18:36;;;;;;;32.57;19.93;;;3.30;99.90;;;;;;5023989;28;20211;-88
2021/01/05 06:21:02;;;;;;;30.27;19.43;;;3.40;99.90;;;;;;5024276;28;20304;-90
2021/01/05 06:23:28;;;;;;;28.20;18.77;;;3.40;99.90;;;;;;5038908;28;20186;-90
2021/01/05 06:25:53;;;;;;;29.60;19.47;;;3.30;99.90;;;;;;5040950;28;20539;-90
2021/01/05 06:28:19;;;;;;;33.67;20.60;;;3.40;99.90;;;;;;5024276;28;20171;-90
2021/01/05 06:30:45;;;;;;;33.27;19.07;;;3.40;99.90;;;;;;5057626;28;20171;-90
2021/01/05 06:33:11;;;;;;;25.83;17.27;;;3.30;99.90;;;;;;5056874;28;20174;-90
2021/01/05 06:35:40;;;;;;;24.53;17.53;;;3.40;99.90;;;;;;5057012;28;20783;-89
2021/01/05 06:38:06;;;;;;;25.53;16.80;;;3.30;99.90;;;;;;5040835;28;20175;-90
2021/01/05 06:40:31;;;;;;;29.60;18.37;;;3.30;99.90;;;;;;5056727;28;20224;-90
2021/01/05 06:42:57;;;;;;;24.67;16.93;;;3.20;99.90;;;;;;5034034;28;20180;-90
2021/01/05 06:45:32;;;;;;;24.03;17.13;;;3.30;99.90;;;;;;5036962;28;20175;-89
2021/01/05 06:47:59;;;;;;;27.37;18.50;;;3.20;99.90;;;;;;5036633;28;20570;-90
2021/01/05 06:50:28;;;;;;;26.33;17.93;;;3.30;99.90;;;;;;5036939;28;20225;-89
2021/01/05 06:52:53;;;;;;;28.95;21.35;;;3.20;99.90;;;;;;5055148;28;20417;-89
2021/01/05 06:55:23;;;;;;;28.63;18.30;;;3.20;99.90;;;;;;5023639;28;20628;-90
2021/01/05 06:57:49;;;;;;;24.90;18.03;;;3.20;99.90;;;;;;5037419;28;20179;-90
2021/01/05 07:00:23;;;;;;;24.07;16.80;;;3.30;99.90;;;;;;5055023;28;20168;-89
2021/01/05 07:02:50;;;;;;;27.97;18.70;;;3.30;99.90;;;;;;5017613;28;20202;-90
2021/01/05 07:05:16;;;;;;;28.33;17.50;;;3.40;99.90;;;;;;5016763;28;20280;-90
2021/01/05 07:07:44;;;;;;;25.83;17.57;;;3.30;99.90;;;;;;5047945;28;20590;-89
2021/01/05 07:10:12;;;;;;;24.17;16.93;;;3.30;99.90;;;;;;5045449;28;20210;-91
2021/01/05 07:12:38;;;;;;;26.37;17.37;;;3.30;99.90;;;;;;5037104;28;20171;-90
2021/01/05 07:15:05;;;;;;;25.33;16.90;;;3.30;99.90;;;;;;5038134;28;20539;-90
2021/01/05 07:17:31;;;;;;;22.20;16.27;;;3.30;99.90;;;;;;5038488;28;20542;-84
2021/01/05 07:19:56;;;;;;;29.23;18.23;;;3.40;99.90;;;;;;5019075;28;20183;-74
2021/01/05 07:22:22;;;;;;;27.20;18.13;;;3.50;99.90;;;;;;5036317;28;20172;-84
2021/01/05 07:24:47;;;;;;;24.20;16.87;;;3.50;99.90;;;;;;5050896;28;20636;-84
2021/01/05 07:27:13;;;;;;;23.03;16.83;;;3.50;99.90;;;;;;5041051;28;20186;-85
2021/01/05 07:29:39;;;;;;;26.03;16.23;;;3.50;99.90;;;;;;5039910;28;20175;-83
2021/01/05 07:32:05;;;;;;;24.13;16.77;;;3.50;99.90;;;;;;5059199;28;20178;-84
2021/01/05 07:34:32;;;;;;;23.60;16.73;;;3.40;99.90;;;;;;5058547;28;20573;-84
2021/01/05 07:37:01;;;;;;;25.93;17.17;;;3.40;99.90;;;;;;5059050;28;20264;-85
2021/01/05 07:39:32;;;;;;;24.83;16.73;;;3.40;99.90;;;;;;5018833;28;20169;-84
2021/01/05 07:42:27;;;;;;;23.80;16.47;;;3.40;99.90;;;;;;5030525;28;20198;-84
2021/01/05 07:44:55;;;;;;;22.13;16.33;;;3.40;99.90;;;;;;5056299;28;20167;-84
2021/01/05 07:47:23;;;;;;;21.73;16.30;;;3.30;99.90;;;;;;5038243;28;20207;-84
2021/01/05 07:49:49;;;;;;;21.23;15.23;;;3.30;99.90;;;;;;5022197;28;20225;-85
2021/01/05 07:52:39;;;;;;;25.77;17.77;;;3.40;99.90;;;;;;5005747;28;20175;-84
2021/01/05 07:55:12;;;;;;;24.43;16.10;;;3.40;99.90;;;;;;5038318;28;20163;-84
2021/01/05 07:57:38;;;;;;;23.33;16.77;;;3.50;99.90;;;;;;5056991;28;20195;-84
2021/01/05 08:00:06;;;;;;;23.13;16.00;;;3.50;99.90;;;;;;5063158;28;20164;-84
2021/01/05 08:02:31;;;;;;;21.23;16.63;;;3.50;99.90;;;;;;5079909;28;20160;-84
2021/01/05 08:04:57;;;;;;;25.40;16.40;;;3.50;99.90;;;;;;5062569;28;20179;-85
2021/01/05 08:07:22;;;;;;;24.90;17.27;;;3.60;99.90;;;;;;5040007;28;20560;-85
2021/01/05 08:09:48;;;;;;;24.93;17.40;;;3.70;99.90;;;;;;5021629;28;20584;-84
2021/01/05 08:12:16;;;;;;;24.77;17.17;;;3.70;99.90;;;;;;5021728;28;20175;-84
2021/01/05 08:14:43;;;;;;;24.40;17.07;;;3.70;99.90;;;;;;5038063;28;20172;-84
2021/01/05 08:17:09;;;;;;;26.23;17.03;;;3.80;99.90;;;;;;5057113;28;20211;-84
2021/01/05 08:19:35;;;;;;;24.00;17.20;;;3.80;99.90;;;;;;5062745;28;20160;-85
2021/01/05 08:22:01;;;;;;;27.03;17.73;;;3.90;99.90;;;;;;5059366;28;20176;-85
2021/01/05 08:24:26;;;;;;;27.93;17.93;;;3.80;99.90;;;;;;5040354;28;20233;-84
2021/01/05 08:26:52;;;;;;;23.63;16.67;;;3.90;99.90;;;;;;5022027;28;20179;-84
2021/01/05 08:29:18;;;;;;;24.03;16.97;;;3.80;99.90;;;;;;5057276;28;20644;-85
2021/01/05 08:31:46;;;;;;;27.73;18.30;;;3.90;99.90;;;;;;5040176;28;20244;-85
2021/01/05 08:34:12;;;;;;;23.43;17.23;;;3.80;99.90;;;;;;5058042;28;20313;-85
2021/01/05 08:36:38;;;;;;;21.90;16.53;;;3.60;99.90;;;;;;5058502;28;20240;-85
2021/01/05 08:39:10;;;;;;;25.77;16.90;;;3.60;99.90;;;;;;5034071;28;20186;-85
2021/01/05 08:41:36;;;;;;;23.30;16.63;;;3.60;99.90;;;;;;5059480;28;20178;-86
2021/01/05 08:44:01;;;;;;;24.47;17.20;;;3.60;99.90;;;;;;5058328;28;20174;-85
2021/01/05 08:46:29;;;;;;;29.63;19.03;;;3.60;99.90;;;;;;5041145;28;20186;-85
2021/01/05 08:48:55;;;;;;;24.63;16.53;;;3.70;99.90;;;;;;5047194;28;20193;-85
2021/01/05 08:51:22;;;;;;;25.83;16.70;;;3.80;99.90;;;;;;5055673;28;20252;-85
2021/01/05 08:53:49;;;;;;;28.77;18.87;;;3.80;99.90;;;;;;5040914;28;20639;-86
2021/01/05 08:56:21;;;;;;;24.10;16.63;;;3.90;99.90;;;;;;5058012;28;20563;-85
2021/01/05 08:58:47;;;;;;;24.43;17.73;;;4.00;99.90;;;;;;5075419;28;20193;-85
2021/01/05 09:01:13;;;;;;;26.87;17.63;;;3.80;99.90;;;;;;5057340;28;20687;-85
2021/01/05 09:03:39;;;;;;;25.43;16.87;;;3.70;99.90;;;;;;5012507;28;20213;-84
2021/01/05 09:06:06;;;;;;;29.73;18.43;;;3.70;99.90;;;;;;5036799;28;20248;-84
2021/01/05 09:08:31;;;;;;;25.50;17.63;;;3.70;99.90;;;;;;5054643;28;20547;-85
2021/01/05 09:10:59;;;;;;;28.87;18.50;;;3.80;99.90;;;;;;5020467;28;20183;-84
2021/01/05 09:13:25;;;;;;;30.33;20.43;;;4.10;99.90;;;;;;5044463;28;20178;-84
2021/01/05 09:15:52;;;;;;;32.00;20.50;;;4.00;99.90;;;;;;5044372;28;20341;-84
2021/01/05 09:18:18;;;;;;;34.40;21.17;;;3.80;99.90;;;;;;5020590;28;20187;-84
2021/01/05 09:20:44;;;;;;;31.63;20.97;;;3.80;99.90;;;;;;5020394;28;20172;-84
2021/01/05 09:23:10;;;;;;;36.47;21.73;;;3.90;99.90;;;;;;5036846;28;20174;-84
2021/01/05 09:25:38;;;;;;;30.77;20.47;;;4.00;99.90;;;;;;5020348;28;20621;-85
2021/01/05 09:28:04;;;;;;;30.33;20.07;;;3.90;99.90;;;;;;5054958;28;20230;-86
2021/01/05 09:30:30;;;;;;;33.43;21.40;;;3.90;99.90;;;;;;5036815;28;20163;-85
2021/01/05 09:32:56;;;;;;;36.97;22.60;;;4.00;99.90;;;;;;5003939;28;20236;-85
2021/01/05 09:35:22;;;;;;;43.40;24.60;;;4.10;99.90;;;;;;5036802;28;20251;-85
2021/01/05 09:37:49;;;;;;;35.27;21.43;;;3.90;99.90;;;;;;5036464;28;20540;-86
2021/01/05 09:40:16;;;;;;;32.90;21.20;;;3.80;99.90;;;;;;5020597;28;20172;-86
2021/01/05 09:42:43;;;;;;;49.93;23.77;;;3.80;99.90;;;;;;5054656;28;20255;-85
2021/01/05 09:45:09;;;;;;;50.53;25.73;;;3.80;99.90;;;;;;5036660;28;20233;-85
2021/01/05 09:47:35;;;;;;;42.80;24.80;;;3.70;99.90;;;;;;5038532;28;20266;-86
2021/01/05 09:50:00;;;;;;;49.53;29.57;;;3.80;99.90;;;;;;5039353;28;20203;-86
2021/01/05 09:52:26;;;;;;;54.70;30.50;;;3.80;99.90;;;;;;5004775;28;20183;-86
2021/01/05 09:54:52;;;;;;;33.77;22.10;;;3.80;99.90;;;;;;5038112;28;20526;-85
2021/01/05 09:57:18;;;;;;;37.07;22.17;;;3.90;99.90;;;;;;5021681;28;20679;-86
2021/01/05 09:59:45;;;;;;;40.73;23.90;;;3.90;99.90;;;;;;5037462;28;20639;-86
2021/01/05 10:02:11;;;;;;;39.50;22.50;;;4.20;99.90;;;;;;5038049;28;20243;-85
2021/01/05 10:04:37;;;;;;;37.27;23.17;;;4.40;99.90;;;;;;5043370;28;20225;-85
2021/01/05 10:07:03;;;;;;;34.20;22.13;;;4.20;99.90;;;;;;5042023;28;20532;-84
2021/01/05 10:09:28;;;;;;;33.43;22.37;;;4.10;99.90;;;;;;5040707;28;20253;-86
2021/01/05 10:11:54;;;;;;;34.83;23.17;;;4.10;99.90;;;;;;5057766;28;20179;-86
2021/01/05 10:14:20;;;;;;;36.97;22.37;;;4.00;99.90;;;;;;5023887;28;20236;-85
2021/01/05 10:16:53;;;;;;;32.87;21.87;;;3.80;99.90;;;;;;5074161;28;20203;-85
2021/01/05 10:19:19;;;;;;;36.90;22.70;;;3.90;99.90;;;;;;5056931;28;20234;-86
2021/01/05 10:21:45;;;;;;;33.10;21.63;;;4.00;99.90;;;;;;5017264;28;20195;-86
2021/01/05 10:24:12;;;;;;;31.60;21.53;;;4.00;99.90;;;;;;5037106;28;20224;-85
2021/01/05 10:26:38;;;;;;;31.13;20.33;;;4.00;99.90;;;;;;5059467;28;20155;-84
2021/01/05 10:29:05;;;;;;;35.30;21.50;;;3.90;99.90;;;;;;5060143;28;20187;-85
2021/01/05 10:31:38;;;;;;;34.33;21.37;;;3.90;99.90;;;;;;5077579;28;20163;-83
2021/01/05 10:34:05;;;;;;;36.90;21.97;;;4.10;99.90;;;;;;5056840;28;20175;-85
2021/01/05 10:36:30;;;;;;;37.73;21.30;;;4.30;99.90;;;;;;5051562;28;20237;-85
2021/01/05 10:38:56;;;;;;;35.23;20.43;;;4.20;99.90;;;;;;5059220;28;20554;-85
2021/01/05 10:41:22;;;;;;;33.73;20.80;;;3.90;99.90;;;;;;5054795;28;20203;-84
2021/01/05 10:43:47;;;;;;;38.10;22.13;;;3.80;99.90;;;;;;5055908;28;20178;-84
2021/01/05 10:46:18;;;;;;;39.50;22.67;;;4.00;99.90;;;;;;5043689;28;20190;-84
2021/01/05 10:48:44;;;;;;;36.90;22.03;;;4.00;99.90;;;;;;5055741;28;20250;-85
2021/01/05 10:51:10;;;;;;;39.03;22.20;;;4.10;99.90;;;;;;5054747;28;20172;-84
2021/01/05 10:53:36;;;;;;;39.80;23.43;;;4.00;99.90;;;;;;5053740;28;20171;-85
2021/01/05 10:56:02;;;;;;;41.93;22.87;;;3.90;99.90;;;;;;5019362;28;20214;-86
2021/01/05 10:58:27;;;;;;;41.77;24.57;;;4.00;99.90;;;;;;5035808;28;20584;-85
2021/01/05 11:00:53;;;;;;;38.27;22.90;;;4.00;99.90;;;;;;5003111;28;20171;-85
2021/01/05 11:03:19;;;;;;;38.90;21.90;;;4.10;99.90;;;;;;5020337;28;20266;-85
2021/01/05 11:05:45;;;;;;;38.70;23.10;;;4.00;99.90;;;;;;5048209;28;20225;-85
2021/01/05 11:08:10;;;;;;;38.90;23.07;;;4.10;99.90;;;;;;5031764;28;20602;-86
2021/01/05 11:10:36;;;;;;;40.23;22.63;;;4.10;99.90;;;;;;5020691;28;20184;-85
2021/01/05 11:13:02;;;;;;;42.63;24.00;;;3.90;99.90;;;;;;5021404;28;20263;-84
2021/01/05 11:15:28;;;;;;;46.20;23.80;;;3.90;99.90;;;;;;5029775;28;20561;-85
2021/01/05 11:17:53;;;;;;;41.70;23.90;;;4.00;99.90;;;;;;4988664;28;20180;-86
2021/01/05 11:20:19;;;;;;;38.50;23.13;;;3.90;99.90;;;;;;5033865;28;20631;-86
2021/01/05 11:22:45;;;;;;;39.47;22.67;;;3.80;99.90;;;;;;5040511;28;20201;-86
2021/01/05 11:25:16;;;;;;;40.23;22.57;;;3.80;99.90;;;;;;5040053;28;20206;-86
2021/01/05 11:27:42;;;;;;;40.87;25.00;;;3.90;99.90;;;;;;5040206;28;20175;-86
2021/01/05 11:30:12;;;;;;;41.40;24.83;;;4.00;99.90;;;;;;5057680;28;20532;-86
2021/01/05 11:32:38;;;;;;;38.47;23.03;;;4.00;99.90;;;;;;5021664;28;20192;-86
2021/01/05 11:35:06;;;;;;;44.07;21.97;;;4.00;99.90;;;;;;5040123;28;20200;-86
2021/01/05 11:37:35;;;;;;;39.77;22.60;;;3.90;99.90;;;;;;5023702;28;20222;-87
2021/01/05 11:40:00;;;;;;;38.57;22.07;;;3.80;99.90;;;;;;5056222;28;20168;-78
2021/01/05 11:42:26;;;;;;;40.57;21.63;;;3.90;99.90;;;;;;5055233;28;20617;-77
2021/01/05 11:44:51;;;;;;;39.43;21.90;;;3.80;99.90;;;;;;5055695;28;20171;-78
2021/01/05 11:47:21;;;;;;;41.53;23.30;;;3.80;99.90;;;;;;5038022;28;20198;-77
2021/01/05 11:49:48;;;;;;;41.10;23.73;;;3.80;99.90;;;;;;5054161;28;20210;-78
2021/01/05 11:52:14;;;;;;;39.53;23.33;;;3.80;99.90;;;;;;5051618;28;20184;-78
2021/01/05 11:54:39;;;;;;;46.97;23.63;;;3.90;99.90;;;;;;5030924;28;20172;-78
2021/01/05 11:57:05;;;;;;;40.43;22.97;;;4.00;99.90;;;;;;5042746;28;20262;-79
2021/01/05 11:59:31;;;;;;;42.93;24.00;;;4.00;99.90;;;;;;5026103;28;20203;-79
2021/01/05 12:01:59;;;;;;;40.47;22.37;;;4.00;99.90;;;;;;5017361;28;20176;-78
2021/01/05 12:04:25;;;;;;;32.13;20.07;;;3.90;99.90;;;;;;5055156;28;20761;-78
2021/01/05 12:06:52;;;;;;;35.70;20.97;;;3.90;99.90;;;;;;5028881;28;20194;-79
2021/01/05 12:09:19;;;;;;;32.77;20.03;;;3.90;99.90;;;;;;5057195;28;20208;-78
2021/01/05 12:11:45;;;;;;;34.63;20.70;;;3.90;99.90;;;;;;5057624;28;20174;-78
2021/01/05 12:14:13;;;;;;;38.80;21.33;;;3.90;99.90;;;;;;5057756;28;20170;-78
2021/01/05 12:16:41;;;;;;;37.50;21.13;;;3.90;99.90;;;;;;5056536;28;20210;-78
2021/01/05 12:19:11;;;;;;;41.97;22.10;;;4.00;99.90;;;;;;5073656;28;20219;-78
2021/01/05 12:21:39;;;;;;;40.37;22.00;;;4.00;99.90;;;;;;5075041;28;20650;-78
2021/01/05 12:24:06;;;;;;;37.03;22.00;;;4.00;99.90;;;;;;5057104;28;20175;-79
2021/01/05 12:26:37;;;;;;;37.13;20.33;;;4.00;99.90;;;;;;5074949;28;20171;-79
2021/01/05 12:29:08;;;;;;;40.03;22.03;;;4.00;99.90;;;;;;5074930;28;20170;-78
2021/01/05 12:31:55;;;;;;;34.83;21.03;;;4.00;99.90;;;;;;5057425;28;20163;-79
2021/01/05 12:34:25;;;;;;;44.27;22.07;;;4.00;99.90;;;;;;5047172;28;20182;-78
2021/01/05 12:36:51;;;;;;;36.27;20.87;;;3.90;99.90;;;;;;5048242;28;20196;-79
2021/01/05 12:39:21;;;;;;;36.23;20.80;;;4.10;99.90;;;;;;5017709;28;20175;-79
2021/01/05 12:41:47;;;;;;;35.27;21.23;;;4.10;99.90;;;;;;5020673;28;20525;-79
2021/01/05 12:44:20;;;;;;;33.60;21.27;;;4.30;99.90;;;;;;5020594;28;20177;-78
2021/01/05 12:46:46;;;;;;;34.00;20.03;;;4.40;99.90;;;;;;5036620;28;20183;-78
2021/01/05 12:49:14;;;;;;;31.77;20.13;;;4.10;99.90;;;;;;5036590;28;20525;-79
2021/01/05 12:51:42;;;;;;;34.33;19.73;;;4.10;99.90;;;;;;5055524;28;20205;-79